LHPP/PEV METAR and TAF weather

Enter ICAO airport designator
Station Type Date Time Source
LHPP METAR 2019/06/16 04:45 UTC NOAA

LHPP 160445Z 07004KT CAVOK 24/20 Q1013


Station Type Date Time Source
LHPP Decoded METAR 2019/06/16 04:45 UTC NOAA

Pecs / Pogany, Hungary (LHPP) 46-06N 018-14E 203M
Jun 16, 2019 - 12:45 AM EDT / 2019.06.16 0445 UTC
Wind: from the ENE (070 degrees) at 5 MPH (4 KT):0
Visibility: greater than 7 mile(s):0
Temperature: 75 F (24 C)
Dew Point: 68 F (20 C)
Relative Humidity: 78%
Pressure (altimeter): 29.91 in. Hg (1013 hPa)
ob: LHPP 160445Z 07004KT CAVOK 24/20 Q1013
cycle: 5

Station Type Date Time Source
LHPP TAF 2017/08/21 15:50 UTC NOAA

TAF LHPP 211700Z 2115/2214 CNL

Example: see airport list